createdAt,value
2023-01-28T02:24:23.070Z,24.60
2023-01-28T02:27:12.632Z,26.23
2023-01-28T02:29:49.399Z,21.80
2023-01-28T02:32:45.263Z,20.73
2023-01-28T02:35:36.533Z,24.13
2023-01-28T02:38:14.441Z,19.92
2023-01-28T02:41:06.390Z,18.88
2023-01-28T02:43:44.581Z,20.30
2023-01-28T02:46:45.524Z,30.30
2023-01-28T02:49:17.409Z,18.17
2023-01-28T02:52:01.214Z,24.05
2023-01-28T02:55:18.573Z,26.63
2023-01-28T02:58:18.972Z,17.52
2023-01-28T03:00:48.437Z,20.95
2023-01-28T03:03:28.328Z,21.85
2023-01-28T03:06:04.189Z,26.73
2023-01-28T03:11:47.471Z,22.35
2023-01-28T03:14:34.929Z,22.27
2023-01-28T03:17:21.272Z,20.02
2023-01-28T03:22:56.280Z,20.80
2023-01-28T03:25:44.726Z,23.27
2023-01-28T03:28:34.923Z,23.65
2023-01-28T03:31:22.852Z,26.60
2023-01-28T03:34:09.745Z,22.60
2023-01-28T03:36:53.474Z,26.55
2023-01-28T03:39:29.382Z,24.02
2023-01-28T03:44:51.704Z,20.23
2023-01-28T03:47:27.080Z,21.65
2023-01-28T03:49:55.468Z,19.35
2023-01-28T03:52:25.247Z,25.25
2023-01-28T03:54:53.043Z,20.30
2023-01-28T03:57:27.152Z,24.52
2023-01-28T03:59:54.270Z,14.88
2023-01-28T04:02:22.492Z,19.95
2023-01-28T04:04:50.214Z,17.88
2023-01-28T04:07:16.908Z,19.30
2023-01-28T04:09:43.966Z,16.23
2023-01-28T04:12:11.216Z,20.38
2023-01-28T04:14:39.323Z,18.08
2023-01-28T04:17:07.476Z,18.90
2023-01-28T04:19:37.127Z,15.93
2023-01-28T04:22:07.985Z,18.23
2023-01-28T04:24:34.660Z,14.57
2023-01-28T04:27:01.249Z,21.98
2023-01-28T04:29:27.982Z,21.67
2023-01-28T04:31:54.579Z,16.65
2023-01-28T04:34:21.104Z,17.90
2023-01-28T04:36:47.808Z,16.05
2023-01-28T04:39:14.442Z,19.65
2023-01-28T04:41:41.020Z,11.50
2023-01-28T04:44:07.608Z,15.93
2023-01-28T04:46:34.264Z,14.73
2023-01-28T04:49:02.041Z,15.13
2023-01-28T04:51:28.594Z,18.98
2023-01-28T04:53:55.160Z,12.30
2023-01-28T04:56:21.783Z,17.48
2023-01-28T04:58:48.359Z,13.30
2023-01-28T05:01:14.939Z,20.38
2023-01-28T05:03:41.459Z,13.70
2023-01-28T05:06:08.973Z,13.38
2023-01-28T05:08:35.516Z,17.02
2023-01-28T05:11:02.057Z,15.23
2023-01-28T05:13:28.627Z,13.35
2023-01-28T05:15:55.140Z,13.90
2023-01-28T05:18:21.689Z,10.43
2023-01-28T05:20:48.282Z,13.90
2023-01-28T05:23:14.823Z,19.00
2023-01-28T05:25:41.352Z,20.63
2023-01-28T05:28:08.005Z,18.25
2023-01-28T05:30:34.610Z,19.02
2023-01-28T05:33:01.148Z,15.00
2023-01-28T05:35:27.782Z,13.68
2023-01-28T05:37:54.433Z,18.73
2023-01-28T05:40:21.020Z,15.18
2023-01-28T10:12:34.070Z,20.33
2023-01-28T10:15:06.268Z,19.80
2023-01-28T10:17:41.092Z,15.73
2023-01-28T10:20:10.638Z,17.85
2023-01-28T10:23:01.010Z,16.10
2023-01-28T10:25:31.553Z,16.38
2023-01-28T10:28:01.077Z,15.20
2023-01-28T10:30:32.041Z,18.08
2023-01-28T10:33:06.526Z,15.88
2023-01-28T10:35:39.069Z,18.10
2023-01-28T10:38:08.586Z,14.52
2023-01-28T10:40:35.807Z,15.80
2023-01-28T10:43:02.824Z,20.17
2023-01-28T10:45:38.661Z,18.17
2023-01-28T10:48:19.077Z,13.77
2023-01-28T10:50:57.075Z,15.70
2023-01-28T10:53:37.667Z,18.25
2023-01-28T10:56:07.600Z,13.80
2023-01-28T10:58:46.468Z,17.60
2023-01-28T11:01:13.032Z,18.73
2023-01-28T11:03:53.267Z,21.50
2023-01-28T11:06:25.801Z,15.02
2023-01-28T11:08:52.377Z,17.40
2023-01-28T11:11:27.027Z,15.38
2023-01-28T11:13:58.364Z,14.93
2023-01-28T11:16:26.295Z,18.23
2023-01-28T11:18:57.321Z,24.55
2023-01-28T11:21:29.401Z,13.95
2023-01-28T11:24:06.152Z,15.20
2023-01-28T11:26:39.636Z,16.50
2023-01-28T11:29:06.890Z,16.80
2023-01-28T11:31:44.287Z,21.35
2023-01-28T11:34:17.863Z,17.55
2023-01-28T11:36:52.609Z,15.60
2023-01-28T11:39:26.010Z,19.38
2023-01-28T11:41:53.320Z,16.42
2023-01-28T11:44:24.935Z,17.08
2023-01-28T11:47:15.660Z,16.33
2023-01-28T11:50:20.088Z,18.35
2023-01-28T11:53:07.252Z,20.20
2023-01-28T11:55:51.533Z,15.23
2023-01-28T11:58:54.816Z,17.23
2023-01-28T12:01:46.058Z,15.48
2023-01-28T12:04:22.821Z,18.52
2023-01-28T12:07:16.889Z,19.17
2023-01-28T12:09:57.134Z,15.38
2023-01-28T12:12:43.881Z,16.48
2023-01-28T12:15:38.534Z,15.35
2023-01-28T12:18:20.213Z,18.10
2023-01-28T12:21:16.794Z,18.60
2023-01-28T12:24:10.964Z,13.23
2023-01-28T12:27:17.260Z,18.08
2023-01-28T12:30:19.402Z,14.07
2023-01-28T12:33:13.290Z,12.57
2023-01-28T12:35:39.795Z,14.02
2023-01-28T12:38:19.331Z,15.10
2023-01-28T12:40:55.212Z,15.75
2023-01-28T12:46:23.487Z,12.77
2023-01-28T12:48:58.676Z,15.80
2023-01-28T12:51:30.858Z,12.40
2023-01-28T12:54:05.625Z,14.18
2023-01-28T12:56:40.562Z,14.45
2023-01-28T12:59:20.194Z,13.50
2023-01-28T13:02:11.398Z,13.20
2023-01-28T13:04:50.526Z,18.20
2023-01-28T13:08:05.610Z,12.90
2023-01-28T13:10:38.811Z,15.90
2023-01-28T13:13:06.100Z,21.77
2023-01-28T13:15:36.479Z,14.50
2023-01-28T13:18:05.539Z,16.30
2023-01-28T13:20:34.886Z,14.93
2023-01-28T13:23:03.555Z,17.15
2023-01-28T13:25:36.029Z,16.05
2023-01-28T13:28:06.861Z,14.60
2023-01-28T13:30:47.209Z,14.05
2023-01-28T13:33:30.289Z,14.18
2023-01-28T13:35:57.606Z,17.02
2023-01-28T13:38:24.754Z,18.23
2023-01-28T13:40:57.114Z,14.63
2023-01-28T14:19:32.840Z,17.83
2023-01-28T14:21:59.593Z,18.85
2023-01-28T14:24:27.368Z,17.92
2023-01-28T14:27:28.373Z,20.40
2023-01-28T14:30:03.697Z,20.42
2023-01-28T14:32:31.528Z,20.05
2023-01-28T14:35:01.978Z,19.45
2023-01-28T14:37:30.607Z,21.95
2023-01-28T14:40:03.145Z,20.55
2023-01-28T14:43:05.195Z,19.90
2023-01-28T14:45:40.441Z,23.98
2023-01-28T14:48:26.114Z,27.73
2023-01-28T14:51:04.702Z,22.60
2023-01-28T14:53:55.886Z,18.10
2023-01-28T14:56:31.484Z,24.38
2023-01-28T14:59:24.565Z,23.65
2023-01-28T15:01:56.394Z,21.83
2023-01-28T15:04:31.778Z,25.65
2023-01-28T15:07:12.661Z,22.73
2023-01-28T15:09:39.234Z,19.17
2023-01-28T15:12:08.022Z,19.95
2023-01-28T15:14:34.746Z,22.33
2023-01-28T15:17:02.019Z,24.58
2023-01-28T15:19:35.549Z,20.63
2023-01-28T15:22:05.423Z,25.95
2023-01-28T15:24:34.967Z,22.17
2023-01-28T15:27:02.069Z,20.00
2023-01-28T15:29:34.559Z,25.48
2023-01-28T15:32:01.974Z,33.85
2023-01-28T15:34:30.498Z,23.17
2023-01-28T15:37:00.682Z,29.88
2023-01-28T15:39:29.378Z,30.60
2023-01-28T15:42:07.329Z,34.58
2023-01-28T15:44:42.325Z,31.13
2023-01-28T15:47:33.346Z,37.77
2023-01-28T15:50:04.636Z,27.48
2023-01-28T15:52:37.624Z,31.23
2023-01-28T15:55:06.606Z,31.85
2023-01-28T15:57:34.943Z,34.13
2023-01-28T16:00:13.304Z,43.42
2023-01-28T16:02:54.086Z,33.92
2023-01-28T16:05:41.392Z,30.55
2023-01-28T16:08:11.885Z,32.33
2023-01-28T16:10:39.054Z,31.85
2023-01-28T16:13:21.674Z,33.85
2023-01-28T16:15:54.243Z,28.60
2023-01-28T16:18:30.898Z,33.88
2023-01-28T16:20:59.848Z,37.75
2023-01-28T16:23:27.988Z,38.97
2023-01-28T16:26:21.668Z,40.97
2023-01-28T16:28:48.278Z,36.72
2023-01-28T16:31:15.012Z,39.45
2023-01-28T16:33:41.861Z,53.55
2023-01-28T16:36:14.163Z,51.42
2023-01-28T16:38:41.091Z,50.35
2023-01-28T16:41:22.845Z,43.17
2023-01-28T16:43:49.457Z,42.42
2023-01-28T16:46:16.085Z,43.75
2023-01-28T16:48:42.666Z,57.67
2023-01-28T16:51:17.109Z,59.80
2023-01-28T16:53:45.689Z,55.53
2023-01-28T16:56:35.854Z,41.42
2023-01-28T16:59:05.066Z,44.90
2023-01-28T17:01:31.619Z,34.60
2023-01-28T17:03:58.564Z,44.33
2023-01-28T17:06:25.179Z,44.78
2023-01-28T17:08:51.782Z,43.45
2023-01-28T17:11:18.449Z,43.90
2023-01-28T17:13:45.004Z,36.40
2023-01-28T17:16:11.605Z,34.20
2023-01-28T17:18:38.147Z,37.97
2023-01-28T17:21:06.944Z,35.90
2023-01-28T17:23:34.208Z,34.80
2023-01-28T17:26:08.613Z,35.15
2023-01-28T17:28:35.143Z,49.20
2023-01-28T17:31:12.427Z,49.67
2023-01-28T17:33:39.777Z,42.00
2023-01-28T17:36:06.831Z,55.63
2023-01-28T17:38:33.694Z,52.90
2023-01-28T17:41:08.142Z,78.78
2023-01-28T17:43:34.939Z,104.28
2023-01-28T17:46:10.061Z,127.50
2023-01-28T17:48:36.711Z,154.27
2023-01-28T17:51:03.490Z,118.70
2023-01-28T17:53:30.037Z,90.35
2023-01-28T17:55:56.767Z,72.80
2023-01-28T17:58:23.480Z,56.70
2023-01-28T18:00:50.058Z,55.97
2023-01-28T18:03:16.985Z,41.97
2023-01-28T18:05:43.697Z,27.60
2023-01-28T18:08:10.367Z,49.38
2023-01-28T18:10:37.387Z,33.97
2023-01-28T18:13:03.974Z,33.42
2023-01-28T18:15:30.648Z,26.65
2023-01-28T18:17:57.325Z,32.38
2023-01-28T18:20:23.931Z,21.23
2023-01-28T18:22:50.462Z,19.95
2023-01-28T18:25:19.263Z,23.20
2023-01-28T18:27:46.101Z,16.48
2023-01-28T18:30:14.228Z,20.15
2023-01-28T18:32:41.174Z,20.45
2023-01-28T18:35:08.191Z,15.73
2023-01-28T18:37:34.875Z,19.85
2023-01-28T18:40:01.564Z,18.13
2023-01-28T18:42:28.168Z,21.38
2023-01-28T18:44:54.721Z,18.55
2023-01-28T18:47:21.881Z,24.50
2023-01-28T18:49:48.610Z,15.55
2023-01-28T18:52:15.293Z,15.10
2023-01-28T18:54:41.891Z,18.73
2023-01-28T18:57:08.533Z,15.13
2023-01-28T18:59:35.064Z,24.23
2023-01-28T19:02:01.709Z,21.42
2023-01-28T19:04:28.249Z,25.27
2023-01-28T19:06:58.165Z,17.08
2023-01-28T19:09:24.876Z,17.40
2023-01-28T19:11:51.529Z,24.58
2023-01-28T19:14:18.166Z,29.92
2023-01-28T19:16:44.872Z,27.60
2023-01-28T19:19:12.050Z,16.00
2023-01-28T19:21:38.813Z,18.98
2023-01-28T19:24:09.736Z,21.60
2023-01-28T19:26:37.589Z,17.30
2023-01-28T19:29:07.963Z,13.70
2023-01-28T19:31:35.184Z,13.02
2023-01-28T19:34:01.809Z,12.18
2023-01-28T19:36:31.821Z,15.38
2023-01-28T19:39:00.155Z,18.20
2023-01-28T19:41:28.387Z,19.80
2023-01-28T19:43:55.645Z,14.93
2023-01-28T19:46:22.367Z,23.33
2023-01-28T19:48:49.004Z,17.00
2023-01-28T19:51:16.335Z,13.68
2023-01-28T19:53:44.287Z,14.75
2023-01-28T19:56:14.454Z,16.02
2023-01-28T19:58:42.823Z,17.33
2023-01-28T20:01:18.713Z,16.35
2023-01-28T20:06:15.121Z,13.68
2023-01-28T20:08:42.578Z,11.55
2023-01-28T20:11:12.462Z,17.23
2023-01-28T20:13:40.633Z,10.52
2023-01-28T20:16:09.953Z,13.00
2023-01-28T20:18:36.574Z,10.15
2023-01-28T20:21:05.291Z,10.38
2023-01-28T20:23:35.319Z,12.48
2023-01-28T20:26:02.118Z,8.80
2023-01-28T20:28:28.961Z,8.77
2023-01-28T20:30:55.735Z,8.88
2023-01-28T20:33:23.295Z,7.72
2023-01-28T20:35:49.808Z,14.90
2023-01-28T20:38:16.414Z,13.18
2023-01-28T20:40:43.884Z,11.32
2023-01-28T20:43:10.833Z,10.82
2023-01-28T20:45:37.721Z,10.60
2023-01-28T20:48:04.658Z,10.27
2023-01-28T20:50:31.312Z,13.60
2023-01-28T20:52:58.315Z,13.60
2023-01-28T20:55:25.200Z,16.80
2023-01-28T20:57:52.617Z,9.40
2023-01-28T21:00:19.946Z,11.85
2023-01-28T21:02:46.503Z,10.38
2023-01-28T21:05:14.203Z,11.75
2023-01-28T21:07:40.977Z,11.85
2023-01-28T21:10:08.401Z,9.80
2023-01-28T21:12:34.989Z,24.27
2023-01-28T21:15:01.771Z,12.73
2023-01-28T21:17:29.317Z,16.35
2023-01-28T21:19:56.028Z,10.23
2023-01-28T21:22:22.868Z,12.57
2023-01-28T21:24:51.156Z,11.60
2023-01-28T21:27:17.726Z,19.75
2023-01-28T21:29:44.310Z,11.25
2023-01-28T21:32:11.006Z,8.60
2023-01-28T21:34:37.612Z,11.48
2023-01-28T21:37:04.326Z,7.35
2023-01-28T21:39:30.889Z,10.25
2023-01-28T21:41:57.638Z,8.68
2023-01-28T21:44:24.332Z,10.52
2023-01-28T21:46:51.182Z,8.68
2023-01-28T21:49:17.779Z,11.23
